sensor_id;sensor_type;location;lat;lon;timestamp;P1;durP1;ratioP1;P2;durP2;ratioP2
31262;SDS011;17892;52.080;9.006;2024-03-02T00:02:44;9.15;;;5.32;;
31262;SDS011;17892;52.080;9.006;2024-03-02T00:05:11;9.30;;;5.35;;
31262;SDS011;17892;52.080;9.006;2024-03-02T00:07:41;7.90;;;5.15;;
31262;SDS011;17892;52.080;9.006;2024-03-02T00:10:09;8.38;;;5.07;;
31262;SDS011;17892;52.080;9.006;2024-03-02T00:12:37;9.43;;;5.38;;
31262;SDS011;17892;52.080;9.006;2024-03-02T00:15:47;10.05;;;5.47;;
31262;SDS011;17892;52.080;9.006;2024-03-02T00:17:53;8.98;;;5.00;;
31262;SDS011;17892;52.080;9.006;2024-03-02T00:20:21;8.02;;;4.68;;
31262;SDS011;17892;52.080;9.006;2024-03-02T00:22:48;9.52;;;5.35;;
31262;SDS011;17892;52.080;9.006;2024-03-02T00:25:15;8.57;;;5.00;;
31262;SDS011;17892;52.080;9.006;2024-03-02T00:27:41;9.32;;;5.18;;
31262;SDS011;17892;52.080;9.006;2024-03-02T00:30:30;8.55;;;4.72;;
31262;SDS011;17892;52.080;9.006;2024-03-02T00:33:35;8.40;;;4.97;;
31262;SDS011;17892;52.080;9.006;2024-03-02T00:36:08;9.63;;;4.97;;
31262;SDS011;17892;52.080;9.006;2024-03-02T00:38:42;9.63;;;5.55;;
31262;SDS011;17892;52.080;9.006;2024-03-02T00:41:15;9.10;;;5.00;;
31262;SDS011;17892;52.080;9.006;2024-03-02T00:43:53;8.35;;;4.80;;
31262;SDS011;17892;52.080;9.006;2024-03-02T00:46:35;8.82;;;4.30;;
31262;SDS011;17892;52.080;9.006;2024-03-02T00:49:11;8.98;;;5.00;;
31262;SDS011;17892;52.080;9.006;2024-03-02T00:51:46;7.60;;;4.05;;
31262;SDS011;17892;52.080;9.006;2024-03-02T00:54:20;6.68;;;4.20;;
31262;SDS011;17892;52.080;9.006;2024-03-02T00:56:51;9.32;;;5.18;;
31262;SDS011;17892;52.080;9.006;2024-03-02T00:59:20;6.53;;;3.78;;
31262;SDS011;17892;52.080;9.006;2024-03-02T01:01:47;9.45;;;4.43;;
31262;SDS011;17892;52.080;9.006;2024-03-02T01:04:14;8.55;;;5.00;;
31262;SDS011;17892;52.080;9.006;2024-03-02T01:06:41;8.10;;;4.88;;
31262;SDS011;17892;52.080;9.006;2024-03-02T01:09:08;9.07;;;4.85;;
31262;SDS011;17892;52.080;9.006;2024-03-02T01:11:34;8.90;;;5.38;;
31262;SDS011;17892;52.080;9.006;2024-03-02T01:13:59;10.00;;;4.97;;
31262;SDS011;17892;52.080;9.006;2024-03-02T01:16:25;10.20;;;5.70;;
31262;SDS011;17892;52.080;9.006;2024-03-02T01:18:51;9.90;;;5.22;;
31262;SDS011;17892;52.080;9.006;2024-03-02T01:21:16;9.48;;;5.00;;
31262;SDS011;17892;52.080;9.006;2024-03-02T01:23:42;9.07;;;5.10;;
31262;SDS011;17892;52.080;9.006;2024-03-02T01:26:08;10.20;;;5.30;;
31262;SDS011;17892;52.080;9.006;2024-03-02T01:28:34;9.38;;;5.20;;
31262;SDS011;17892;52.080;9.006;2024-03-02T01:30:59;9.80;;;5.50;;
31262;SDS011;17892;52.080;9.006;2024-03-02T01:33:27;8.15;;;4.97;;
31262;SDS011;17892;52.080;9.006;2024-03-02T01:35:52;8.65;;;5.05;;
31262;SDS011;17892;52.080;9.006;2024-03-02T01:38:18;10.07;;;5.97;;
31262;SDS011;17892;52.080;9.006;2024-03-02T01:40:44;8.20;;;4.82;;
31262;SDS011;17892;52.080;9.006;2024-03-02T01:43:10;8.88;;;5.07;;
31262;SDS011;17892;52.080;9.006;2024-03-02T01:45:35;10.65;;;6.00;;
31262;SDS011;17892;52.080;9.006;2024-03-02T01:48:02;8.88;;;5.40;;
31262;SDS011;17892;52.080;9.006;2024-03-02T01:52:58;10.05;;;5.80;;
31262;SDS011;17892;52.080;9.006;2024-03-02T01:55:24;9.48;;;5.20;;
31262;SDS011;17892;52.080;9.006;2024-03-02T01:57:51;9.32;;;5.30;;
31262;SDS011;17892;52.080;9.006;2024-03-02T02:00:17;9.68;;;6.03;;
31262;SDS011;17892;52.080;9.006;2024-03-02T02:02:44;8.98;;;5.15;;
31262;SDS011;17892;52.080;9.006;2024-03-02T02:05:11;9.07;;;5.30;;
31262;SDS011;17892;52.080;9.006;2024-03-02T02:07:38;11.07;;;5.85;;
31262;SDS011;17892;52.080;9.006;2024-03-02T02:10:03;11.23;;;6.22;;
31262;SDS011;17892;52.080;9.006;2024-03-02T02:12:30;9.65;;;5.53;;
31262;SDS011;17892;52.080;9.006;2024-03-02T02:14:55;8.48;;;5.18;;
31262;SDS011;17892;52.080;9.006;2024-03-02T02:17:21;9.30;;;5.55;;
31262;SDS011;17892;52.080;9.006;2024-03-02T02:19:47;9.20;;;5.65;;
31262;SDS011;17892;52.080;9.006;2024-03-02T02:22:12;9.70;;;5.82;;
31262;SDS011;17892;52.080;9.006;2024-03-02T02:24:41;9.10;;;5.50;;
31262;SDS011;17892;52.080;9.006;2024-03-02T02:27:07;10.93;;;5.70;;
31262;SDS011;17892;52.080;9.006;2024-03-02T02:29:34;9.65;;;5.20;;
31262;SDS011;17892;52.080;9.006;2024-03-02T02:32:00;10.20;;;5.60;;
31262;SDS011;17892;52.080;9.006;2024-03-02T02:34:26;10.45;;;6.18;;
31262;SDS011;17892;52.080;9.006;2024-03-02T02:36:52;9.48;;;5.20;;
31262;SDS011;17892;52.080;9.006;2024-03-02T02:39:18;9.27;;;5.28;;
31262;SDS011;17892;52.080;9.006;2024-03-02T02:41:47;10.52;;;5.80;;
31262;SDS011;17892;52.080;9.006;2024-03-02T02:44:13;10.52;;;5.00;;
31262;SDS011;17892;52.080;9.006;2024-03-02T02:46:39;9.20;;;5.30;;
31262;SDS011;17892;52.080;9.006;2024-03-02T02:49:05;8.82;;;5.10;;
31262;SDS011;17892;52.080;9.006;2024-03-02T02:51:31;9.68;;;5.50;;
31262;SDS011;17892;52.080;9.006;2024-03-02T02:53:57;9.48;;;5.05;;
31262;SDS011;17892;52.080;9.006;2024-03-02T02:56:22;8.68;;;5.18;;
31262;SDS011;17892;52.080;9.006;2024-03-02T02:58:48;9.57;;;5.60;;
31262;SDS011;17892;52.080;9.006;2024-03-02T03:01:15;11.13;;;5.55;;
31262;SDS011;17892;52.080;9.006;2024-03-02T03:03:44;9.80;;;5.75;;
31262;SDS011;17892;52.080;9.006;2024-03-02T03:06:10;9.85;;;5.93;;
31262;SDS011;17892;52.080;9.006;2024-03-02T03:08:36;9.55;;;5.30;;
31262;SDS011;17892;52.080;9.006;2024-03-02T03:11:02;11.18;;;6.18;;
31262;SDS011;17892;52.080;9.006;2024-03-02T03:13:29;11.00;;;6.05;;
31262;SDS011;17892;52.080;9.006;2024-03-02T03:15:56;10.05;;;6.30;;
31262;SDS011;17892;52.080;9.006;2024-03-02T03:18:21;11.95;;;6.65;;
31262;SDS011;17892;52.080;9.006;2024-03-02T03:20:47;11.65;;;6.88;;
31262;SDS011;17892;52.080;9.006;2024-03-02T03:23:13;12.25;;;6.25;;
31262;SDS011;17892;52.080;9.006;2024-03-02T03:25:42;11.20;;;6.20;;
31262;SDS011;17892;52.080;9.006;2024-03-02T03:28:08;10.30;;;6.43;;
31262;SDS011;17892;52.080;9.006;2024-03-02T03:30:37;12.93;;;6.50;;
31262;SDS011;17892;52.080;9.006;2024-03-02T03:33:03;12.13;;;6.78;;
31262;SDS011;17892;52.080;9.006;2024-03-02T03:35:31;11.27;;;6.18;;
31262;SDS011;17892;52.080;9.006;2024-03-02T03:37:57;10.85;;;6.68;;
31262;SDS011;17892;52.080;9.006;2024-03-02T03:40:23;12.73;;;6.43;;
31262;SDS011;17892;52.080;9.006;2024-03-02T03:42:49;13.88;;;7.18;;
31262;SDS011;17892;52.080;9.006;2024-03-02T03:45:15;12.02;;;6.30;;
31262;SDS011;17892;52.080;9.006;2024-03-02T03:47:41;11.90;;;6.68;;
31262;SDS011;17892;52.080;9.006;2024-03-02T03:50:07;10.75;;;6.68;;
31262;SDS011;17892;52.080;9.006;2024-03-02T03:52:33;12.23;;;6.80;;
31262;SDS011;17892;52.080;9.006;2024-03-02T03:54:59;11.15;;;6.22;;
31262;SDS011;17892;52.080;9.006;2024-03-02T03:57:25;12.77;;;6.50;;
31262;SDS011;17892;52.080;9.006;2024-03-02T03:59:51;12.23;;;6.97;;
31262;SDS011;17892;52.080;9.006;2024-03-02T04:02:18;12.38;;;6.53;;
31262;SDS011;17892;52.080;9.006;2024-03-02T04:04:43;12.65;;;7.40;;
31262;SDS011;17892;52.080;9.006;2024-03-02T04:07:09;11.77;;;6.55;;
31262;SDS011;17892;52.080;9.006;2024-03-02T04:09:35;11.40;;;6.38;;
31262;SDS011;17892;52.080;9.006;2024-03-02T04:12:00;12.63;;;7.50;;
31262;SDS011;17892;52.080;9.006;2024-03-02T04:14:26;14.30;;;7.20;;
31262;SDS011;17892;52.080;9.006;2024-03-02T04:16:52;13.18;;;6.85;;
31262;SDS011;17892;52.080;9.006;2024-03-02T04:19:17;13.77;;;7.40;;
31262;SDS011;17892;52.080;9.006;2024-03-02T04:21:43;13.57;;;7.32;;
31262;SDS011;17892;52.080;9.006;2024-03-02T04:24:09;12.98;;;7.45;;
31262;SDS011;17892;52.080;9.006;2024-03-02T04:26:34;12.57;;;7.32;;
31262;SDS011;17892;52.080;9.006;2024-03-02T04:29:00;13.27;;;7.53;;
31262;SDS011;17892;52.080;9.006;2024-03-02T04:31:26;13.27;;;7.40;;
31262;SDS011;17892;52.080;9.006;2024-03-02T04:33:52;14.32;;;7.38;;
31262;SDS011;17892;52.080;9.006;2024-03-02T04:36:19;12.88;;;7.00;;
31262;SDS011;17892;52.080;9.006;2024-03-02T04:38:44;13.07;;;7.00;;
31262;SDS011;17892;52.080;9.006;2024-03-02T04:41:10;14.57;;;7.10;;
31262;SDS011;17892;52.080;9.006;2024-03-02T04:43:35;15.00;;;7.85;;
31262;SDS011;17892;52.080;9.006;2024-03-02T04:46:01;15.18;;;7.60;;
31262;SDS011;17892;52.080;9.006;2024-03-02T04:48:27;14.02;;;7.55;;
31262;SDS011;17892;52.080;9.006;2024-03-02T04:50:52;13.75;;;8.02;;
31262;SDS011;17892;52.080;9.006;2024-03-02T04:53:18;15.18;;;8.38;;
31262;SDS011;17892;52.080;9.006;2024-03-02T04:55:44;16.52;;;8.38;;
31262;SDS011;17892;52.080;9.006;2024-03-02T04:58:18;15.82;;;8.68;;
31262;SDS011;17892;52.080;9.006;2024-03-02T05:00:44;14.68;;;7.80;;
31262;SDS011;17892;52.080;9.006;2024-03-02T05:03:11;16.75;;;9.27;;
31262;SDS011;17892;52.080;9.006;2024-03-02T05:05:38;15.50;;;8.32;;
31262;SDS011;17892;52.080;9.006;2024-03-02T05:08:04;14.45;;;7.60;;
31262;SDS011;17892;52.080;9.006;2024-03-02T05:10:29;14.73;;;7.93;;
31262;SDS011;17892;52.080;9.006;2024-03-02T05:12:55;15.73;;;7.85;;
31262;SDS011;17892;52.080;9.006;2024-03-02T05:15:24;18.73;;;9.02;;
31262;SDS011;17892;52.080;9.006;2024-03-02T05:17:50;16.27;;;8.18;;
31262;SDS011;17892;52.080;9.006;2024-03-02T05:20:16;16.40;;;7.47;;
31262;SDS011;17892;52.080;9.006;2024-03-02T05:22:42;16.77;;;8.40;;
31262;SDS011;17892;52.080;9.006;2024-03-02T05:25:07;17.65;;;8.88;;
31262;SDS011;17892;52.080;9.006;2024-03-02T05:27:35;17.10;;;9.50;;
31262;SDS011;17892;52.080;9.006;2024-03-02T05:30:01;17.48;;;8.95;;
31262;SDS011;17892;52.080;9.006;2024-03-02T05:32:27;19.00;;;10.65;;
31262;SDS011;17892;52.080;9.006;2024-03-02T05:34:53;15.73;;;8.68;;
31262;SDS011;17892;52.080;9.006;2024-03-02T05:37:18;18.00;;;9.70;;
31262;SDS011;17892;52.080;9.006;2024-03-02T05:39:44;15.07;;;9.45;;
31262;SDS011;17892;52.080;9.006;2024-03-02T05:42:10;19.10;;;9.77;;
31262;SDS011;17892;52.080;9.006;2024-03-02T05:44:36;19.48;;;9.95;;
31262;SDS011;17892;52.080;9.006;2024-03-02T05:47:02;21.05;;;10.10;;
31262;SDS011;17892;52.080;9.006;2024-03-02T05:49:28;18.75;;;9.85;;
31262;SDS011;17892;52.080;9.006;2024-03-02T05:51:54;17.92;;;10.23;;
31262;SDS011;17892;52.080;9.006;2024-03-02T05:54:20;18.92;;;10.55;;
31262;SDS011;17892;52.080;9.006;2024-03-02T05:56:46;20.33;;;9.60;;
31262;SDS011;17892;52.080;9.006;2024-03-02T05:59:11;19.23;;;9.52;;
31262;SDS011;17892;52.080;9.006;2024-03-02T06:01:40;16.98;;;9.82;;
31262;SDS011;17892;52.080;9.006;2024-03-02T06:04:13;20.80;;;10.70;;
31262;SDS011;17892;52.080;9.006;2024-03-02T06:06:39;20.55;;;10.88;;
31262;SDS011;17892;52.080;9.006;2024-03-02T06:09:05;20.73;;;10.05;;
31262;SDS011;17892;52.080;9.006;2024-03-02T06:11:40;18.42;;;10.10;;
31262;SDS011;17892;52.080;9.006;2024-03-02T06:14:07;18.83;;;9.45;;
31262;SDS011;17892;52.080;9.006;2024-03-02T06:16:34;18.73;;;9.52;;
31262;SDS011;17892;52.080;9.006;2024-03-02T06:19:00;19.17;;;10.05;;
31262;SDS011;17892;52.080;9.006;2024-03-02T06:21:27;20.35;;;9.73;;
31262;SDS011;17892;52.080;9.006;2024-03-02T06:23:53;19.88;;;10.68;;
31262;SDS011;17892;52.080;9.006;2024-03-02T06:26:19;20.63;;;10.43;;
31262;SDS011;17892;52.080;9.006;2024-03-02T06:28:45;18.58;;;9.73;;
31262;SDS011;17892;52.080;9.006;2024-03-02T06:31:11;19.73;;;9.77;;
31262;SDS011;17892;52.080;9.006;2024-03-02T06:33:37;18.20;;;9.48;;
31262;SDS011;17892;52.080;9.006;2024-03-02T06:36:04;19.58;;;9.48;;
31262;SDS011;17892;52.080;9.006;2024-03-02T06:38:30;17.77;;;9.70;;
31262;SDS011;17892;52.080;9.006;2024-03-02T06:40:58;18.80;;;9.73;;
31262;SDS011;17892;52.080;9.006;2024-03-02T06:43:24;16.80;;;9.02;;
31262;SDS011;17892;52.080;9.006;2024-03-02T06:45:50;16.90;;;9.02;;
31262;SDS011;17892;52.080;9.006;2024-03-02T06:48:19;15.77;;;8.95;;
31262;SDS011;17892;52.080;9.006;2024-03-02T06:50:48;18.80;;;10.95;;
31262;SDS011;17892;52.080;9.006;2024-03-02T06:53:15;17.48;;;9.38;;
31262;SDS011;17892;52.080;9.006;2024-03-02T06:55:44;20.17;;;10.65;;
31262;SDS011;17892;52.080;9.006;2024-03-02T06:58:11;17.95;;;8.90;;
31262;SDS011;17892;52.080;9.006;2024-03-02T07:00:42;18.88;;;9.50;;
31262;SDS011;17892;52.080;9.006;2024-03-02T07:03:09;17.15;;;8.93;;
31262;SDS011;17892;52.080;9.006;2024-03-02T07:05:35;18.67;;;9.88;;
31262;SDS011;17892;52.080;9.006;2024-03-02T07:08:00;18.30;;;9.70;;
31262;SDS011;17892;52.080;9.006;2024-03-02T07:10:27;17.27;;;9.40;;
31262;SDS011;17892;52.080;9.006;2024-03-02T07:12:53;19.95;;;10.05;;
31262;SDS011;17892;52.080;9.006;2024-03-02T07:15:19;15.88;;;9.23;;
31262;SDS011;17892;52.080;9.006;2024-03-02T07:18:08;15.82;;;8.15;;
31262;SDS011;17892;52.080;9.006;2024-03-02T07:20:33;13.15;;;7.43;;
31262;SDS011;17892;52.080;9.006;2024-03-02T07:22:59;17.45;;;9.23;;
31262;SDS011;17892;52.080;9.006;2024-03-02T07:25:24;16.77;;;8.73;;
31262;SDS011;17892;52.080;9.006;2024-03-02T07:27:50;15.98;;;8.23;;
31262;SDS011;17892;52.080;9.006;2024-03-02T07:30:16;13.95;;;8.10;;
31262;SDS011;17892;52.080;9.006;2024-03-02T07:32:42;13.30;;;7.70;;
31262;SDS011;17892;52.080;9.006;2024-03-02T07:35:10;15.70;;;8.30;;
31262;SDS011;17892;52.080;9.006;2024-03-02T07:37:39;14.88;;;7.97;;
31262;SDS011;17892;52.080;9.006;2024-03-02T07:40:07;14.52;;;7.88;;
31262;SDS011;17892;52.080;9.006;2024-03-02T07:42:40;15.80;;;8.07;;
31262;SDS011;17892;52.080;9.006;2024-03-02T07:45:06;15.80;;;8.15;;
31262;SDS011;17892;52.080;9.006;2024-03-02T07:47:33;15.07;;;8.55;;
31262;SDS011;17892;52.080;9.006;2024-03-02T07:50:00;15.60;;;7.45;;
31262;SDS011;17892;52.080;9.006;2024-03-02T07:52:25;16.40;;;8.20;;
31262;SDS011;17892;52.080;9.006;2024-03-02T07:54:51;16.05;;;8.25;;
31262;SDS011;17892;52.080;9.006;2024-03-02T07:57:17;13.60;;;8.18;;
31262;SDS011;17892;52.080;9.006;2024-03-02T07:59:43;14.18;;;7.65;;
31262;SDS011;17892;52.080;9.006;2024-03-02T08:02:08;16.23;;;8.88;;
31262;SDS011;17892;52.080;9.006;2024-03-02T08:04:35;15.95;;;8.13;;
31262;SDS011;17892;52.080;9.006;2024-03-02T08:07:01;13.98;;;7.20;;
31262;SDS011;17892;52.080;9.006;2024-03-02T08:09:27;14.90;;;8.60;;
31262;SDS011;17892;52.080;9.006;2024-03-02T08:11:53;15.63;;;8.25;;
31262;SDS011;17892;52.080;9.006;2024-03-02T08:14:19;17.25;;;9.10;;
31262;SDS011;17892;52.080;9.006;2024-03-02T08:16:44;13.55;;;7.68;;
31262;SDS011;17892;52.080;9.006;2024-03-02T08:19:11;16.48;;;8.70;;
31262;SDS011;17892;52.080;9.006;2024-03-02T08:21:36;15.77;;;8.00;;
31262;SDS011;17892;52.080;9.006;2024-03-02T08:24:02;17.02;;;8.32;;
31262;SDS011;17892;52.080;9.006;2024-03-02T08:26:28;14.48;;;8.90;;
31262;SDS011;17892;52.080;9.006;2024-03-02T08:28:56;16.30;;;9.07;;
31262;SDS011;17892;52.080;9.006;2024-03-02T08:31:26;14.90;;;8.07;;
31262;SDS011;17892;52.080;9.006;2024-03-02T08:33:52;14.98;;;8.43;;
31262;SDS011;17892;52.080;9.006;2024-03-02T08:36:18;15.50;;;9.27;;
31262;SDS011;17892;52.080;9.006;2024-03-02T08:38:44;15.40;;;8.27;;
31262;SDS011;17892;52.080;9.006;2024-03-02T08:41:10;15.77;;;8.32;;
31262;SDS011;17892;52.080;9.006;2024-03-02T08:43:38;15.32;;;8.40;;
31262;SDS011;17892;52.080;9.006;2024-03-02T08:46:05;14.90;;;9.45;;
31262;SDS011;17892;52.080;9.006;2024-03-02T08:48:31;14.55;;;8.10;;
31262;SDS011;17892;52.080;9.006;2024-03-02T08:50:56;15.60;;;7.88;;
31262;SDS011;17892;52.080;9.006;2024-03-02T08:53:22;11.30;;;7.90;;
31262;SDS011;17892;52.080;9.006;2024-03-02T08:55:48;13.10;;;8.05;;
31262;SDS011;17892;52.080;9.006;2024-03-02T08:58:14;13.13;;;7.72;;
31262;SDS011;17892;52.080;9.006;2024-03-02T09:00:40;12.82;;;7.43;;
31262;SDS011;17892;52.080;9.006;2024-03-02T09:03:06;12.00;;;7.65;;
31262;SDS011;17892;52.080;9.006;2024-03-02T09:05:32;11.50;;;6.97;;
31262;SDS011;17892;52.080;9.006;2024-03-02T09:07:58;12.52;;;7.13;;
31262;SDS011;17892;52.080;9.006;2024-03-02T09:10:23;12.40;;;7.38;;
31262;SDS011;17892;52.080;9.006;2024-03-02T09:12:49;10.43;;;6.55;;
31262;SDS011;17892;52.080;9.006;2024-03-02T09:15:15;12.38;;;7.13;;
31262;SDS011;17892;52.080;9.006;2024-03-02T09:17:41;11.23;;;7.10;;
31262;SDS011;17892;52.080;9.006;2024-03-02T09:20:06;11.68;;;7.13;;
31262;SDS011;17892;52.080;9.006;2024-03-02T09:22:33;13.60;;;7.60;;
31262;SDS011;17892;52.080;9.006;2024-03-02T09:24:58;11.98;;;7.18;;
31262;SDS011;17892;52.080;9.006;2024-03-02T09:27:24;13.52;;;7.13;;
31262;SDS011;17892;52.080;9.006;2024-03-02T09:29:50;13.30;;;7.55;;
31262;SDS011;17892;52.080;9.006;2024-03-02T09:32:16;12.23;;;7.35;;
31262;SDS011;17892;52.080;9.006;2024-03-02T09:34:41;11.18;;;6.97;;
31262;SDS011;17892;52.080;9.006;2024-03-02T09:37:08;11.98;;;6.75;;
31262;SDS011;17892;52.080;9.006;2024-03-02T09:39:33;13.07;;;6.75;;
31262;SDS011;17892;52.080;9.006;2024-03-02T09:41:59;11.43;;;6.93;;
31262;SDS011;17892;52.080;9.006;2024-03-02T09:44:25;14.55;;;7.43;;
31262;SDS011;17892;52.080;9.006;2024-03-02T09:46:51;11.20;;;6.93;;
31262;SDS011;17892;52.080;9.006;2024-03-02T09:49:17;12.25;;;6.20;;
31262;SDS011;17892;52.080;9.006;2024-03-02T09:51:45;11.90;;;6.90;;
31262;SDS011;17892;52.080;9.006;2024-03-02T09:54:13;10.95;;;6.07;;
31262;SDS011;17892;52.080;9.006;2024-03-02T09:56:40;11.35;;;6.38;;
31262;SDS011;17892;52.080;9.006;2024-03-02T09:59:06;17.55;;;7.63;;
31262;SDS011;17892;52.080;9.006;2024-03-02T10:01:32;9.13;;;6.22;;
31262;SDS011;17892;52.080;9.006;2024-03-02T10:04:00;10.15;;;6.70;;
31262;SDS011;17892;52.080;9.006;2024-03-02T10:06:29;12.13;;;7.28;;
31262;SDS011;17892;52.080;9.006;2024-03-02T10:08:55;11.15;;;6.53;;
31262;SDS011;17892;52.080;9.006;2024-03-02T10:11:31;12.57;;;7.00;;
31262;SDS011;17892;52.080;9.006;2024-03-02T10:14:09;11.32;;;7.00;;
31262;SDS011;17892;52.080;9.006;2024-03-02T10:16:37;10.63;;;6.50;;
31262;SDS011;17892;52.080;9.006;2024-03-02T10:19:22;9.40;;;6.05;;
31262;SDS011;17892;52.080;9.006;2024-03-02T10:21:49;10.00;;;6.43;;
31262;SDS011;17892;52.080;9.006;2024-03-02T10:24:17;9.23;;;6.07;;
31262;SDS011;17892;52.080;9.006;2024-03-02T10:26:43;10.50;;;7.35;;
31262;SDS011;17892;52.080;9.006;2024-03-02T10:29:09;11.77;;;7.28;;
31262;SDS011;17892;52.080;9.006;2024-03-02T10:31:36;8.80;;;5.68;;
31262;SDS011;17892;52.080;9.006;2024-03-02T10:34:08;9.18;;;6.60;;
31262;SDS011;17892;52.080;9.006;2024-03-02T10:36:35;9.57;;;6.25;;
31262;SDS011;17892;52.080;9.006;2024-03-02T10:39:02;9.57;;;6.20;;
31262;SDS011;17892;52.080;9.006;2024-03-02T10:41:29;9.52;;;6.60;;
31262;SDS011;17892;52.080;9.006;2024-03-02T10:43:58;8.57;;;5.38;;
31262;SDS011;17892;52.080;9.006;2024-03-02T10:46:27;9.43;;;5.82;;
31262;SDS011;17892;52.080;9.006;2024-03-02T10:48:55;8.60;;;5.68;;
31262;SDS011;17892;52.080;9.006;2024-03-02T10:51:25;7.97;;;5.38;;
31262;SDS011;17892;52.080;9.006;2024-03-02T10:53:53;7.50;;;4.95;;
31262;SDS011;17892;52.080;9.006;2024-03-02T10:56:27;8.10;;;5.00;;
31262;SDS011;17892;52.080;9.006;2024-03-02T10:59:16;8.57;;;5.00;;
31262;SDS011;17892;52.080;9.006;2024-03-02T11:02:08;7.05;;;4.68;;
31262;SDS011;17892;52.080;9.006;2024-03-02T11:04:37;7.93;;;5.80;;
31262;SDS011;17892;52.080;9.006;2024-03-02T11:07:05;7.97;;;4.95;;
31262;SDS011;17892;52.080;9.006;2024-03-02T11:09:35;7.35;;;4.75;;
31262;SDS011;17892;52.080;9.006;2024-03-02T11:14:57;8.35;;;5.32;;
31262;SDS011;17892;52.080;9.006;2024-03-02T11:17:24;8.15;;;5.15;;
31262;SDS011;17892;52.080;9.006;2024-03-02T11:19:50;7.53;;;4.78;;
31262;SDS011;17892;52.080;9.006;2024-03-02T11:22:16;6.68;;;4.82;;
31262;SDS011;17892;52.080;9.006;2024-03-02T11:24:52;8.32;;;5.07;;
31262;SDS011;17892;52.080;9.006;2024-03-02T11:30:48;7.18;;;4.00;;
31262;SDS011;17892;52.080;9.006;2024-03-02T11:33:08;6.03;;;4.18;;
31262;SDS011;17892;52.080;9.006;2024-03-02T11:35:42;6.03;;;4.25;;
31262;SDS011;17892;52.080;9.006;2024-03-02T11:38:13;5.82;;;3.80;;
31262;SDS011;17892;52.080;9.006;2024-03-02T11:40:39;7.47;;;4.47;;
31262;SDS011;17892;52.080;9.006;2024-03-02T11:43:05;6.82;;;3.78;;
31262;SDS011;17892;52.080;9.006;2024-03-02T11:45:33;6.85;;;4.00;;
31262;SDS011;17892;52.080;9.006;2024-03-02T11:47:59;5.45;;;3.60;;
31262;SDS011;17892;52.080;9.006;2024-03-02T11:50:33;5.22;;;3.72;;
31262;SDS011;17892;52.080;9.006;2024-03-02T11:53:02;7.03;;;4.32;;
31262;SDS011;17892;52.080;9.006;2024-03-02T11:55:31;5.43;;;3.47;;
31262;SDS011;17892;52.080;9.006;2024-03-02T11:58:04;5.78;;;4.10;;
31262;SDS011;17892;52.080;9.006;2024-03-02T12:00:30;5.13;;;3.08;;
31262;SDS011;17892;52.080;9.006;2024-03-02T12:03:00;5.63;;;3.53;;
31262;SDS011;17892;52.080;9.006;2024-03-02T12:05:29;6.30;;;3.58;;
31262;SDS011;17892;52.080;9.006;2024-03-02T12:07:59;5.05;;;3.20;;
31262;SDS011;17892;52.080;9.006;2024-03-02T12:10:27;5.07;;;3.63;;
31262;SDS011;17892;52.080;9.006;2024-03-02T12:12:58;4.63;;;3.13;;
31262;SDS011;17892;52.080;9.006;2024-03-02T12:15:43;5.32;;;3.53;;
31262;SDS011;17892;52.080;9.006;2024-03-02T12:18:09;5.97;;;3.55;;
31262;SDS011;17892;52.080;9.006;2024-03-02T12:20:35;5.53;;;3.53;;
31262;SDS011;17892;52.080;9.006;2024-03-02T12:23:01;5.43;;;3.40;;
31262;SDS011;17892;52.080;9.006;2024-03-02T12:25:28;5.43;;;3.28;;
31262;SDS011;17892;52.080;9.006;2024-03-02T12:27:57;5.10;;;3.22;;
31262;SDS011;17892;52.080;9.006;2024-03-02T12:30:26;5.45;;;3.35;;
31262;SDS011;17892;52.080;9.006;2024-03-02T12:32:55;5.07;;;3.17;;
31262;SDS011;17892;52.080;9.006;2024-03-02T12:35:21;4.70;;;2.95;;
31262;SDS011;17892;52.080;9.006;2024-03-02T12:37:51;5.32;;;3.40;;
31262;SDS011;17892;52.080;9.006;2024-03-02T12:40:18;4.45;;;2.55;;
31262;SDS011;17892;52.080;9.006;2024-03-02T12:42:45;4.82;;;2.90;;
31262;SDS011;17892;52.080;9.006;2024-03-02T12:45:15;5.22;;;3.33;;
31262;SDS011;17892;52.080;9.006;2024-03-02T12:47:48;4.35;;;2.80;;
31262;SDS011;17892;52.080;9.006;2024-03-02T12:50:14;4.95;;;3.60;;
31262;SDS011;17892;52.080;9.006;2024-03-02T12:52:40;4.65;;;2.72;;
31262;SDS011;17892;52.080;9.006;2024-03-02T12:55:06;5.50;;;3.30;;
31262;SDS011;17892;52.080;9.006;2024-03-02T12:57:33;4.60;;;3.00;;
31262;SDS011;17892;52.080;9.006;2024-03-02T13:00:03;6.38;;;3.03;;
31262;SDS011;17892;52.080;9.006;2024-03-02T13:02:39;5.68;;;3.05;;
31262;SDS011;17892;52.080;9.006;2024-03-02T13:05:06;5.05;;;3.35;;
31262;SDS011;17892;52.080;9.006;2024-03-02T13:07:36;6.25;;;3.47;;
31262;SDS011;17892;52.080;9.006;2024-03-02T13:10:09;5.10;;;3.05;;
31262;SDS011;17892;52.080;9.006;2024-03-02T13:12:36;5.00;;;3.00;;
31262;SDS011;17892;52.080;9.006;2024-03-02T13:15:02;4.10;;;2.60;;
31262;SDS011;17892;52.080;9.006;2024-03-02T13:17:30;5.80;;;2.92;;
31262;SDS011;17892;52.080;9.006;2024-03-02T13:19:58;4.93;;;2.80;;
31262;SDS011;17892;52.080;9.006;2024-03-02T13:22:24;4.32;;;2.83;;
31262;SDS011;17892;52.080;9.006;2024-03-02T13:24:51;5.03;;;2.67;;
31262;SDS011;17892;52.080;9.006;2024-03-02T13:27:21;4.53;;;2.72;;
31262;SDS011;17892;52.080;9.006;2024-03-02T13:29:47;3.58;;;2.28;;
31262;SDS011;17892;52.080;9.006;2024-03-02T13:32:13;4.15;;;2.50;;
31262;SDS011;17892;52.080;9.006;2024-03-02T13:34:40;4.25;;;2.70;;
31262;SDS011;17892;52.080;9.006;2024-03-02T13:37:06;5.00;;;2.72;;
31262;SDS011;17892;52.080;9.006;2024-03-02T13:39:32;5.07;;;2.95;;
31262;SDS011;17892;52.080;9.006;2024-03-02T13:41:59;4.18;;;2.55;;
31262;SDS011;17892;52.080;9.006;2024-03-02T13:44:30;4.55;;;2.30;;
31262;SDS011;17892;52.080;9.006;2024-03-02T13:46:56;4.38;;;2.38;;
31262;SDS011;17892;52.080;9.006;2024-03-02T13:49:24;3.70;;;2.10;;
31262;SDS011;17892;52.080;9.006;2024-03-02T13:51:53;3.95;;;2.13;;
31262;SDS011;17892;52.080;9.006;2024-03-02T13:54:20;3.72;;;2.00;;
31262;SDS011;17892;52.080;9.006;2024-03-02T13:56:45;3.70;;;2.00;;
31262;SDS011;17892;52.080;9.006;2024-03-02T13:59:11;3.65;;;2.15;;
31262;SDS011;17892;52.080;9.006;2024-03-02T14:01:37;3.28;;;1.70;;
31262;SDS011;17892;52.080;9.006;2024-03-02T14:04:03;2.75;;;1.40;;
31262;SDS011;17892;52.080;9.006;2024-03-02T14:06:29;3.42;;;1.70;;
31262;SDS011;17892;52.080;9.006;2024-03-02T14:08:55;3.53;;;1.77;;
31262;SDS011;17892;52.080;9.006;2024-03-02T14:11:20;3.67;;;1.80;;
31262;SDS011;17892;52.080;9.006;2024-03-02T14:13:46;3.05;;;1.63;;
31262;SDS011;17892;52.080;9.006;2024-03-02T14:16:18;3.63;;;1.50;;
31262;SDS011;17892;52.080;9.006;2024-03-02T14:18:44;2.92;;;1.45;;
31262;SDS011;17892;52.080;9.006;2024-03-02T14:21:09;3.38;;;1.70;;
31262;SDS011;17892;52.080;9.006;2024-03-02T14:23:35;4.25;;;1.50;;
31262;SDS011;17892;52.080;9.006;2024-03-02T14:26:01;3.20;;;1.50;;
31262;SDS011;17892;52.080;9.006;2024-03-02T14:28:26;2.65;;;1.20;;
31262;SDS011;17892;52.080;9.006;2024-03-02T14:30:52;3.17;;;1.40;;
31262;SDS011;17892;52.080;9.006;2024-03-02T14:33:19;3.10;;;1.30;;
31262;SDS011;17892;52.080;9.006;2024-03-02T14:35:45;4.65;;;1.80;;
31262;SDS011;17892;52.080;9.006;2024-03-02T14:38:11;3.63;;;1.40;;
31262;SDS011;17892;52.080;9.006;2024-03-02T14:40:37;3.58;;;1.52;;
31262;SDS011;17892;52.080;9.006;2024-03-02T14:43:03;2.65;;;1.25;;
31262;SDS011;17892;52.080;9.006;2024-03-02T14:45:29;3.17;;;1.50;;
31262;SDS011;17892;52.080;9.006;2024-03-02T14:47:55;3.33;;;1.40;;
31262;SDS011;17892;52.080;9.006;2024-03-02T14:50:24;3.22;;;1.70;;
31262;SDS011;17892;52.080;9.006;2024-03-02T14:52:53;3.35;;;1.40;;